sensor_id;sensor_type;location;lat;lon;timestamp;pressure;altitude;pressure_sealevel;temperature;humidity
52745;BME280;38637;49.984;20.426;2023-07-22T00:02:12;98825.31;;;18.72;96.11
52745;BME280;38637;49.984;20.426;2023-07-22T00:04:37;98828.44;;;18.71;96.58
52745;BME280;38637;49.984;20.426;2023-07-22T00:07:03;98828.28;;;18.67;96.92
52745;BME280;38637;49.984;20.426;2023-07-22T00:09:28;98841.78;;;18.60;97.31
52745;BME280;38637;49.984;20.426;2023-07-22T00:11:53;98841.31;;;18.58;97.64
52745;BME280;38637;49.984;20.426;2023-07-22T00:14:19;98846.84;;;18.58;97.62
52745;BME280;38637;49.984;20.426;2023-07-22T00:16:44;98841.13;;;18.54;97.77
52745;BME280;38637;49.984;20.426;2023-07-22T00:19:09;98844.88;;;18.58;97.96
52745;BME280;38637;49.984;20.426;2023-07-22T00:21:35;98847.81;;;18.62;97.77
52745;BME280;38637;49.984;20.426;2023-07-22T00:24:00;98849.56;;;18.67;97.45
52745;BME280;38637;49.984;20.426;2023-07-22T00:26:26;98848.91;;;18.70;97.31
52745;BME280;38637;49.984;20.426;2023-07-22T00:28:51;98852.34;;;18.67;97.39
52745;BME280;38637;49.984;20.426;2023-07-22T00:31:16;98850.22;;;18.64;97.37
52745;BME280;38637;49.984;20.426;2023-07-22T00:33:42;98850.56;;;18.71;97.58
52745;BME280;38637;49.984;20.426;2023-07-22T00:36:07;98855.75;;;18.72;97.74
52745;BME280;38637;49.984;20.426;2023-07-22T00:38:33;98855.75;;;18.72;98.23
52745;BME280;38637;49.984;20.426;2023-07-22T00:40:58;98866.00;;;18.72;98.52
52745;BME280;38637;49.984;20.426;2023-07-22T00:43:23;98864.03;;;18.72;98.33
52745;BME280;38637;49.984;20.426;2023-07-22T00:45:50;98856.91;;;18.71;98.52
52745;BME280;38637;49.984;20.426;2023-07-22T00:48:17;98859.66;;;18.71;98.40
52745;BME280;38637;49.984;20.426;2023-07-22T00:50:42;98857.25;;;18.61;99.11
52745;BME280;38637;49.984;20.426;2023-07-22T00:53:08;98870.22;;;18.69;99.17
52745;BME280;38637;49.984;20.426;2023-07-22T00:55:34;98865.03;;;18.68;99.77
52745;BME280;38637;49.984;20.426;2023-07-22T00:58:00;98854.13;;;18.71;99.18
52745;BME280;38637;49.984;20.426;2023-07-22T01:00:26;98864.38;;;18.71;99.88
52745;BME280;38637;49.984;20.426;2023-07-22T01:02:51;98858.84;;;18.71;100.00
52745;BME280;38637;49.984;20.426;2023-07-22T01:05:17;98859.16;;;18.69;100.00
52745;BME280;38637;49.984;20.426;2023-07-22T01:07:43;98854.94;;;18.72;100.00
52745;BME280;38637;49.984;20.426;2023-07-22T01:10:09;98852.03;;;18.77;99.86
52745;BME280;38637;49.984;20.426;2023-07-22T01:12:34;98847.81;;;18.79;99.81
52745;BME280;38637;49.984;20.426;2023-07-22T01:15:00;98838.00;;;18.82;99.62
52745;BME280;38637;49.984;20.426;2023-07-22T01:17:28;98817.03;;;18.81;99.35
52745;BME280;38637;49.984;20.426;2023-07-22T01:19:54;98814.25;;;18.90;99.38
52745;BME280;38637;49.984;20.426;2023-07-22T01:22:21;98823.84;;;18.92;99.30
52745;BME280;38637;49.984;20.426;2023-07-22T01:24:47;98813.09;;;18.91;99.35
52745;BME280;38637;49.984;20.426;2023-07-22T01:27:12;98808.72;;;18.90;99.53
52745;BME280;38637;49.984;20.426;2023-07-22T01:29:39;98790.66;;;18.83;99.49
52745;BME280;38637;49.984;20.426;2023-07-22T01:32:05;98808.72;;;18.90;99.54
52745;BME280;38637;49.984;20.426;2023-07-22T01:34:30;98805.13;;;18.89;99.56
52745;BME280;38637;49.984;20.426;2023-07-22T01:36:57;98794.38;;;18.88;99.50
52745;BME280;38637;49.984;20.426;2023-07-22T01:39:22;98782.88;;;18.86;99.27
52745;BME280;38637;49.984;20.426;2023-07-22T01:41:48;98783.97;;;18.85;99.49
52745;BME280;38637;49.984;20.426;2023-07-22T01:44:14;98788.72;;;18.84;99.43
52745;BME280;38637;49.984;20.426;2023-07-22T01:46:40;98791.00;;;18.82;99.50
52745;BME280;38637;49.984;20.426;2023-07-22T01:49:07;98792.13;;;18.81;99.60
52745;BME280;38637;49.984;20.426;2023-07-22T01:51:35;98785.31;;;18.78;99.71
52745;BME280;38637;49.984;20.426;2023-07-22T01:54:03;98763.50;;;18.68;99.73
52745;BME280;38637;49.984;20.426;2023-07-22T01:56:28;98775.53;;;18.72;99.90
52745;BME280;38637;49.984;20.426;2023-07-22T01:58:54;98781.72;;;18.69;99.89
52745;BME280;38637;49.984;20.426;2023-07-22T02:01:19;98788.25;;;18.65;99.80
52745;BME280;38637;49.984;20.426;2023-07-22T02:03:44;98778.16;;;18.60;99.90
52745;BME280;38637;49.984;20.426;2023-07-22T02:06:10;98790.22;;;18.55;99.93
52745;BME280;38637;49.984;20.426;2023-07-22T02:08:35;98780.94;;;18.51;99.97
52745;BME280;38637;49.984;20.426;2023-07-22T02:11:07;98801.63;;;18.45;100.00
52745;BME280;38637;49.984;20.426;2023-07-22T02:13:34;98799.34;;;18.38;100.00
52745;BME280;38637;49.984;20.426;2023-07-22T02:16:00;98795.78;;;18.29;100.00
52745;BME280;38637;49.984;20.426;2023-07-22T02:18:26;98802.78;;;18.27;100.00
52745;BME280;38637;49.984;20.426;2023-07-22T02:20:52;98805.72;;;18.22;100.00
52745;BME280;38637;49.984;20.426;2023-07-22T02:23:18;98809.78;;;18.16;100.00
52745;BME280;38637;49.984;20.426;2023-07-22T02:25:43;98813.22;;;18.12;100.00
52745;BME280;38637;49.984;20.426;2023-07-22T02:28:09;98811.91;;;18.10;100.00
52745;BME280;38637;49.984;20.426;2023-07-22T02:30:35;98824.06;;;18.09;100.00
52745;BME280;38637;49.984;20.426;2023-07-22T02:33:01;98817.75;;;18.08;100.00
52745;BME280;38637;49.984;20.426;2023-07-22T02:35:27;98827.34;;;18.11;100.00
52745;BME280;38637;49.984;20.426;2023-07-22T02:37:52;98822.31;;;18.13;100.00
52745;BME280;38637;49.984;20.426;2023-07-22T02:40:17;98822.31;;;18.13;100.00
52745;BME280;38637;49.984;20.426;2023-07-22T02:42:43;98816.28;;;18.11;100.00
52745;BME280;38637;49.984;20.426;2023-07-22T02:45:08;98819.19;;;18.06;100.00
52745;BME280;38637;49.984;20.426;2023-07-22T02:47:34;98827.03;;;18.12;100.00
52745;BME280;38637;49.984;20.426;2023-07-22T02:49:59;98823.94;;;18.14;100.00
52745;BME280;38637;49.984;20.426;2023-07-22T02:52:25;98835.31;;;18.12;100.00
52745;BME280;38637;49.984;20.426;2023-07-22T02:57:29;98845.06;;;18.10;100.00
52745;BME280;38637;49.984;20.426;2023-07-22T02:59:54;98843.41;;;18.09;100.00
52745;BME280;38637;49.984;20.426;2023-07-22T03:02:20;98842.13;;;18.06;100.00
52745;BME280;38637;49.984;20.426;2023-07-22T03:04:45;98837.72;;;18.05;100.00
52745;BME280;38637;49.984;20.426;2023-07-22T03:07:10;98842.28;;;18.01;100.00
52745;BME280;38637;49.984;20.426;2023-07-22T03:09:36;98834.66;;;17.98;100.00
52745;BME280;38637;49.984;20.426;2023-07-22T03:12:01;98833.03;;;17.97;100.00
52745;BME280;38637;49.984;20.426;2023-07-22T03:14:26;98841.97;;;17.94;100.00
52745;BME280;38637;49.984;20.426;2023-07-22T03:16:51;98833.84;;;17.98;100.00
52745;BME280;38637;49.984;20.426;2023-07-22T03:19:17;98834.97;;;17.97;100.00
52745;BME280;38637;49.984;20.426;2023-07-22T03:21:42;98836.09;;;17.96;100.00
52745;BME280;38637;49.984;20.426;2023-07-22T03:24:08;98836.09;;;17.96;100.00
52745;BME280;38637;49.984;20.426;2023-07-22T03:26:33;98833.03;;;17.97;100.00
52745;BME280;38637;49.984;20.426;2023-07-22T03:28:58;98838.72;;;18.01;100.00
52745;BME280;38637;49.984;20.426;2023-07-22T03:31:24;98834.66;;;18.07;100.00
52745;BME280;38637;49.984;20.426;2023-07-22T03:33:49;98836.94;;;18.13;100.00
52745;BME280;38637;49.984;20.426;2023-07-22T03:36:15;98838.06;;;18.21;99.88
52745;BME280;38637;49.984;20.426;2023-07-22T03:38:41;98840.66;;;18.26;99.84
52745;BME280;38637;49.984;20.426;2023-07-22T03:41:06;98851.22;;;18.33;99.34
52745;BME280;38637;49.984;20.426;2023-07-22T03:43:31;98847.34;;;18.43;99.38
52745;BME280;38637;49.984;20.426;2023-07-22T03:45:57;98843.75;;;18.51;98.53
52745;BME280;38637;49.984;20.426;2023-07-22T03:48:22;98852.34;;;18.75;97.45
52745;BME280;38637;49.984;20.426;2023-07-22T03:50:47;98844.03;;;18.93;96.20
52745;BME280;38637;49.984;20.426;2023-07-22T03:53:12;98846.41;;;19.12;95.31
52745;BME280;38637;49.984;20.426;2023-07-22T03:55:38;98846.78;;;19.31;94.35
52745;BME280;38637;49.984;20.426;2023-07-22T03:58:03;98847.22;;;19.50;93.28
52745;BME280;38637;49.984;20.426;2023-07-22T04:00:30;98852.66;;;19.68;92.28
52745;BME280;38637;49.984;20.426;2023-07-22T04:02:56;98850.16;;;19.84;91.72
52745;BME280;38637;49.984;20.426;2023-07-22T04:05:21;98851.38;;;19.95;90.83
52745;BME280;38637;49.984;20.426;2023-07-22T04:07:46;98850.50;;;20.03;89.52
52745;BME280;38637;49.984;20.426;2023-07-22T04:10:12;98854.22;;;20.07;89.00
52745;BME280;38637;49.984;20.426;2023-07-22T04:12:37;98851.84;;;20.18;88.61
52745;BME280;38637;49.984;20.426;2023-07-22T04:15:02;98855.09;;;20.20;88.46
52745;BME280;38637;49.984;20.426;2023-07-22T04:17:28;98859.81;;;20.40;86.96
52745;BME280;38637;49.984;20.426;2023-07-22T04:19:54;98857.94;;;20.53;85.11
52745;BME280;38637;49.984;20.426;2023-07-22T04:22:20;98851.44;;;20.70;84.87
52745;BME280;38637;49.984;20.426;2023-07-22T04:24:46;98851.63;;;20.98;83.65
52745;BME280;38637;49.984;20.426;2023-07-22T04:27:13;98844.81;;;21.08;82.42
52745;BME280;38637;49.984;20.426;2023-07-22T04:29:39;98859.66;;;21.12;81.70
52745;BME280;38637;49.984;20.426;2023-07-22T04:32:04;98856.44;;;20.89;82.33
52745;BME280;38637;49.984;20.426;2023-07-22T04:34:31;98862.91;;;20.81;82.82
52745;BME280;38637;49.984;20.426;2023-07-22T04:36:56;98867.94;;;20.67;83.36
52745;BME280;38637;49.984;20.426;2023-07-22T04:39:22;98867.41;;;20.52;83.96
52745;BME280;38637;49.984;20.426;2023-07-22T04:41:48;98875.09;;;20.47;83.41
52745;BME280;38637;49.984;20.426;2023-07-22T04:44:13;98877.06;;;20.46;83.91
52745;BME280;38637;49.984;20.426;2023-07-22T04:46:38;98880.53;;;20.64;83.04
52745;BME280;38637;49.984;20.426;2023-07-22T04:49:04;98881.59;;;20.51;82.93
52745;BME280;38637;49.984;20.426;2023-07-22T04:51:30;98896.44;;;20.55;83.11
52745;BME280;38637;49.984;20.426;2023-07-22T04:53:57;98888.94;;;20.55;82.81
52745;BME280;38637;49.984;20.426;2023-07-22T04:56:22;98895.28;;;20.56;82.33
52745;BME280;38637;49.984;20.426;2023-07-22T04:58:47;98895.00;;;20.49;82.90
52745;BME280;38637;49.984;20.426;2023-07-22T05:01:14;98889.16;;;20.41;83.25
52745;BME280;38637;49.984;20.426;2023-07-22T05:03:39;98883.97;;;20.40;82.83
52745;BME280;38637;49.984;20.426;2023-07-22T05:06:05;98889.03;;;20.38;82.88
52745;BME280;38637;49.984;20.426;2023-07-22T05:08:31;98891.97;;;20.20;82.86
52745;BME280;38637;49.984;20.426;2023-07-22T05:10:56;98892.91;;;20.25;83.96
52745;BME280;38637;49.984;20.426;2023-07-22T05:13:21;98900.47;;;20.15;84.34
52745;BME280;38637;49.984;20.426;2023-07-22T05:15:47;98889.56;;;20.10;84.96
52745;BME280;38637;49.984;20.426;2023-07-22T05:18:12;98883.16;;;20.18;85.27
52745;BME280;38637;49.984;20.426;2023-07-22T05:20:38;98907.56;;;20.25;85.99
52745;BME280;38637;49.984;20.426;2023-07-22T05:23:04;98914.75;;;20.05;86.76
52745;BME280;38637;49.984;20.426;2023-07-22T05:25:29;98924.97;;;19.84;88.40
52745;BME280;38637;49.984;20.426;2023-07-22T05:27:55;98924.47;;;19.82;88.80
52745;BME280;38637;49.984;20.426;2023-07-22T05:30:20;98921.88;;;19.77;89.13
52745;BME280;38637;49.984;20.426;2023-07-22T05:32:45;98923.63;;;19.90;89.00
52745;BME280;38637;49.984;20.426;2023-07-22T05:35:11;98910.72;;;19.94;87.75
52745;BME280;38637;49.984;20.426;2023-07-22T05:37:36;98911.66;;;19.98;87.56
52745;BME280;38637;49.984;20.426;2023-07-22T05:40:01;98912.56;;;20.11;87.07
52745;BME280;38637;49.984;20.426;2023-07-22T05:42:27;98904.84;;;20.16;86.99
52745;BME280;38637;49.984;20.426;2023-07-22T05:44:54;98917.13;;;20.36;86.43
52745;BME280;38637;49.984;20.426;2023-07-22T05:47:21;98919.00;;;20.44;85.99
52745;BME280;38637;49.984;20.426;2023-07-22T05:49:46;98905.56;;;20.55;85.28
52745;BME280;38637;49.984;20.426;2023-07-22T05:52:11;98903.19;;;20.66;85.00
52745;BME280;38637;49.984;20.426;2023-07-22T05:54:37;98918.75;;;20.79;85.20
52745;BME280;38637;49.984;20.426;2023-07-22T05:57:02;98917.06;;;20.99;84.85
52745;BME280;38637;49.984;20.426;2023-07-22T05:59:28;98919.84;;;20.99;84.48
52745;BME280;38637;49.984;20.426;2023-07-22T06:01:54;98920.69;;;21.00;82.97
52745;BME280;38637;49.984;20.426;2023-07-22T06:04:19;98924.44;;;21.16;82.77
52745;BME280;38637;49.984;20.426;2023-07-22T06:06:45;98932.50;;;21.42;80.69
52745;BME280;38637;49.984;20.426;2023-07-22T06:09:10;98941.41;;;21.48;79.78
52745;BME280;38637;49.984;20.426;2023-07-22T06:11:36;98941.09;;;21.62;78.85
52745;BME280;38637;49.984;20.426;2023-07-22T06:14:01;98938.91;;;21.67;79.54
52745;BME280;38637;49.984;20.426;2023-07-22T06:16:27;98938.66;;;21.97;77.75
52745;BME280;38637;49.984;20.426;2023-07-22T06:18:52;98941.09;;;22.35;77.64
52745;BME280;38637;49.984;20.426;2023-07-22T06:21:18;98939.22;;;22.39;75.86
52745;BME280;38637;49.984;20.426;2023-07-22T06:23:43;98934.38;;;22.36;76.97
52745;BME280;38637;49.984;20.426;2023-07-22T06:26:08;98953.06;;;22.23;76.57
52745;BME280;38637;49.984;20.426;2023-07-22T06:28:34;98935.78;;;21.81;74.04
52745;BME280;38637;49.984;20.426;2023-07-22T06:30:59;98948.75;;;21.65;74.94
52745;BME280;38637;49.984;20.426;2023-07-22T06:33:24;98964.00;;;21.46;74.05
52745;BME280;38637;49.984;20.426;2023-07-22T06:35:50;98950.72;;;21.19;74.84
52745;BME280;38637;49.984;20.426;2023-07-22T06:38:15;98957.28;;;21.47;75.71
52745;BME280;38637;49.984;20.426;2023-07-22T06:40:40;98968.19;;;21.52;76.19
52745;BME280;38637;49.984;20.426;2023-07-22T06:43:06;98977.19;;;21.49;75.19
52745;BME280;38637;49.984;20.426;2023-07-22T06:45:32;98993.31;;;21.35;76.22
52745;BME280;38637;49.984;20.426;2023-07-22T06:47:58;98988.56;;;21.02;77.17
52745;BME280;38637;49.984;20.426;2023-07-22T06:50:23;98993.41;;;20.72;78.31
52745;BME280;38637;49.984;20.426;2023-07-22T06:52:49;98993.47;;;20.84;78.28
52745;BME280;38637;49.984;20.426;2023-07-22T06:55:14;99001.66;;;21.02;78.07
52745;BME280;38637;49.984;20.426;2023-07-22T06:57:40;98969.56;;;20.92;77.99
52745;BME280;38637;49.984;20.426;2023-07-22T07:00:06;98995.66;;;21.00;77.76
52745;BME280;38637;49.984;20.426;2023-07-22T07:02:31;98997.81;;;20.94;77.60
52745;BME280;38637;49.984;20.426;2023-07-22T07:04:57;98999.97;;;20.88;77.32
52745;BME280;38637;49.984;20.426;2023-07-22T07:07:22;99014.91;;;20.96;77.27
52745;BME280;38637;49.984;20.426;2023-07-22T07:09:47;99010.88;;;20.94;77.78
52745;BME280;38637;49.984;20.426;2023-07-22T07:12:13;99023.25;;;20.96;77.66
52745;BME280;38637;49.984;20.426;2023-07-22T07:14:38;99013.91;;;20.80;77.32
52745;BME280;38637;49.984;20.426;2023-07-22T07:17:03;99014.97;;;20.87;76.84
52745;BME280;38637;49.984;20.426;2023-07-22T07:19:29;99018.78;;;20.83;76.32
52745;BME280;38637;49.984;20.426;2023-07-22T07:21:54;99038.22;;;20.83;76.68
52745;BME280;38637;49.984;20.426;2023-07-22T07:24:19;99031.84;;;21.24;76.17
52745;BME280;38637;49.984;20.426;2023-07-22T07:26:45;99041.13;;;21.62;73.73
52745;BME280;38637;49.984;20.426;2023-07-22T07:29:11;99030.66;;;21.79;72.70
52745;BME280;38637;49.984;20.426;2023-07-22T07:31:37;99042.41;;;22.22;70.88
52745;BME280;38637;49.984;20.426;2023-07-22T07:34:02;99041.22;;;22.72;69.11
52745;BME280;38637;49.984;20.426;2023-07-22T07:36:28;99051.72;;;22.91;69.60
52745;BME280;38637;49.984;20.426;2023-07-22T07:38:53;99054.97;;;23.05;67.93
52745;BME280;38637;49.984;20.426;2023-07-22T07:41:18;99061.75;;;22.67;68.38
52745;BME280;38637;49.984;20.426;2023-07-22T07:43:44;99063.50;;;22.35;68.36
52745;BME280;38637;49.984;20.426;2023-07-22T07:46:22;99065.78;;;22.09;68.90
52745;BME280;38637;49.984;20.426;2023-07-22T07:48:49;99071.84;;;22.23;69.38
52745;BME280;38637;49.984;20.426;2023-07-22T07:51:17;99079.41;;;22.59;68.85
52745;BME280;38637;49.984;20.426;2023-07-22T07:53:43;99071.16;;;22.63;68.42
52745;BME280;38637;49.984;20.426;2023-07-22T07:56:09;99076.03;;;22.66;67.15
52745;BME280;38637;49.984;20.426;2023-07-22T07:58:35;99082.28;;;22.75;66.37
52745;BME280;38637;49.984;20.426;2023-07-22T08:01:01;99083.41;;;22.74;65.65
52745;BME280;38637;49.984;20.426;2023-07-22T08:03:26;99090.94;;;22.86;66.01
52745;BME280;38637;49.984;20.426;2023-07-22T08:05:51;99095.25;;;22.71;64.88
52745;BME280;38637;49.984;20.426;2023-07-22T08:08:16;99090.97;;;22.61;65.91
52745;BME280;38637;49.984;20.426;2023-07-22T08:10:42;99098.38;;;22.82;65.50
52745;BME280;38637;49.984;20.426;2023-07-22T08:13:09;99104.66;;;22.79;65.53
52745;BME280;38637;49.984;20.426;2023-07-22T08:15:34;99102.09;;;22.61;64.03
52745;BME280;38637;49.984;20.426;2023-07-22T08:18:00;99097.59;;;22.57;64.65
52745;BME280;38637;49.984;20.426;2023-07-22T08:20:25;99113.34;;;22.40;63.95
52745;BME280;38637;49.984;20.426;2023-07-22T08:22:50;99106.28;;;22.43;65.54
52745;BME280;38637;49.984;20.426;2023-07-22T08:25:16;99103.59;;;22.34;65.63
52745;BME280;38637;49.984;20.426;2023-07-22T08:27:41;99108.25;;;22.55;67.27
52745;BME280;38637;49.984;20.426;2023-07-22T08:30:07;99103.84;;;22.66;66.53
52745;BME280;38637;49.984;20.426;2023-07-22T08:32:32;99104.53;;;22.87;65.00
52745;BME280;38637;49.984;20.426;2023-07-22T08:34:57;99110.19;;;23.15;63.58
52745;BME280;38637;49.984;20.426;2023-07-22T08:37:23;99119.03;;;23.46;63.51
52745;BME280;38637;49.984;20.426;2023-07-22T08:39:48;99116.38;;;23.77;60.61
52745;BME280;38637;49.984;20.426;2023-07-22T08:42:15;99120.19;;;24.01;60.42
52745;BME280;38637;49.984;20.426;2023-07-22T08:44:43;99123.88;;;23.89;59.75
52745;BME280;38637;49.984;20.426;2023-07-22T08:47:15;99119.75;;;24.15;59.27
52745;BME280;38637;49.984;20.426;2023-07-22T08:49:43;99123.38;;;24.31;59.08
52745;BME280;38637;49.984;20.426;2023-07-22T08:52:12;99125.78;;;24.33;58.12
52745;BME280;38637;49.984;20.426;2023-07-22T08:54:39;99116.09;;;24.42;56.96
52745;BME280;38637;49.984;20.426;2023-07-22T08:57:05;99115.84;;;24.47;57.41
52745;BME280;38637;49.984;20.426;2023-07-22T08:59:32;99106.09;;;24.25;55.76
52745;BME280;38637;49.984;20.426;2023-07-22T09:01:58;99120.75;;;24.22;57.33
52745;BME280;38637;49.984;20.426;2023-07-22T09:04:24;99118.31;;;24.05;59.22
52745;BME280;38637;49.984;20.426;2023-07-22T09:06:49;99130.47;;;23.97;58.84
52745;BME280;38637;49.984;20.426;2023-07-22T09:09:16;99126.72;;;23.77;57.41
52745;BME280;38637;49.984;20.426;2023-07-22T09:11:42;99143.28;;;23.57;59.41
52745;BME280;38637;49.984;20.426;2023-07-22T09:14:08;99132.44;;;23.28;60.00
52745;BME280;38637;49.984;20.426;2023-07-22T09:16:35;99133.66;;;23.14;60.26
52745;BME280;38637;49.984;20.426;2023-07-22T09:19:03;99135.94;;;23.25;60.82
52745;BME280;38637;49.984;20.426;2023-07-22T09:21:28;99136.50;;;23.30;58.65
52745;BME280;38637;49.984;20.426;2023-07-22T09:23:53;99136.38;;;23.67;59.07
52745;BME280;38637;49.984;20.426;2023-07-22T09:26:19;99131.75;;;23.59;55.92
52745;BME280;38637;49.984;20.426;2023-07-22T09:28:57;99126.94;;;23.44;56.75
52745;BME280;38637;49.984;20.426;2023-07-22T09:31:25;99135.97;;;23.12;57.73
52745;BME280;38637;49.984;20.426;2023-07-22T09:33:51;99146.53;;;22.82;57.73
52745;BME280;38637;49.984;20.426;2023-07-22T09:36:19;99133.41;;;22.70;60.09
52745;BME280;38637;49.984;20.426;2023-07-22T09:38:44;99133.28;;;22.79;58.66
52745;BME280;38637;49.984;20.426;2023-07-22T09:41:09;99135.16;;;22.87;58.28
52745;BME280;38637;49.984;20.426;2023-07-22T09:43:39;99126.91;;;23.03;57.40
52745;BME280;38637;49.984;20.426;2023-07-22T09:46:09;99130.31;;;22.97;56.75
52745;BME280;38637;49.984;20.426;2023-07-22T09:48:44;99137.16;;;22.99;57.37
52745;BME280;38637;49.984;20.426;2023-07-22T09:51:16;99136.66;;;23.09;57.23
52745;BME280;38637;49.984;20.426;2023-07-22T09:53:45;99132.38;;;23.12;57.77
52745;BME280;38637;49.984;20.426;2023-07-22T09:56:11;99133.75;;;23.18;57.32
52745;BME280;38637;49.984;20.426;2023-07-22T09:58:36;99139.53;;;23.25;57.64
52745;BME280;38637;49.984;20.426;2023-07-22T10:01:03;99140.69;;;23.24;57.10
52745;BME280;38637;49.984;20.426;2023-07-22T10:03:31;99140.13;;;23.19;58.37
52745;BME280;38637;49.984;20.426;2023-07-22T10:05:58;99143.09;;;23.38;56.65
52745;BME280;38637;49.984;20.426;2023-07-22T10:08:26;99141.38;;;23.74;55.69
52745;BME280;38637;49.984;20.426;2023-07-22T10:10:53;99145.31;;;24.01;54.33
52745;BME280;38637;49.984;20.426;2023-07-22T10:13:20;99144.88;;;24.15;55.99
52745;BME280;38637;49.984;20.426;2023-07-22T10:15:47;99141.09;;;24.23;53.91
52745;BME280;38637;49.984;20.426;2023-07-22T10:18:13;99139.13;;;24.23;53.52
52745;BME280;38637;49.984;20.426;2023-07-22T10:20:39;99131.66;;;24.27;54.33
52745;BME280;38637;49.984;20.426;2023-07-22T10:23:06;99128.16;;;24.30;53.52
52745;BME280;38637;49.984;20.426;2023-07-22T10:25:33;99137.44;;;24.50;54.09
52745;BME280;38637;49.984;20.426;2023-07-22T10:27:58;99150.22;;;24.51;53.96
52745;BME280;38637;49.984;20.426;2023-07-22T10:30:23;99153.47;;;24.53;53.13
52745;BME280;38637;49.984;20.426;2023-07-22T10:32:52;99152.50;;;24.46;53.12
52745;BME280;38637;49.984;20.426;2023-07-22T10:37:55;99156.66;;;24.24;53.15
52745;BME280;38637;49.984;20.426;2023-07-22T10:43:05;99142.69;;;24.08;53.43
52745;BME280;38637;49.984;20.426;2023-07-22T10:45:39;99139.41;;;24.18;55.11
52745;BME280;38637;49.984;20.426;2023-07-22T10:50:50;99149.25;;;23.72;56.10
52745;BME280;38637;49.984;20.426;2023-07-22T11:12:05;99154.38;;;23.17;53.72
52745;BME280;38637;49.984;20.426;2023-07-22T11:14:33;99156.44;;;23.32;55.06
52745;BME280;38637;49.984;20.426;2023-07-22T11:17:01;99157.06;;;23.54;54.59
52745;BME280;38637;49.984;20.426;2023-07-22T11:19:29;99132.41;;;23.68;53.94
52745;BME280;38637;49.984;20.426;2023-07-22T11:21:54;99149.50;;;23.67;53.48
52745;BME280;38637;49.984;20.426;2023-07-22T11:24:21;99149.56;;;23.54;52.86
52745;BME280;38637;49.984;20.426;2023-07-22T11:26:48;99151.97;;;23.56;52.91
52745;BME280;38637;49.984;20.426;2023-07-22T11:29:15;99145.50;;;23.52;52.08
52745;BME280;38637;49.984;20.426;2023-07-22T11:31:42;99158.50;;;23.48;52.88
52745;BME280;38637;49.984;20.426;2023-07-22T11:34:09;99159.19;;;23.45;53.33
52745;BME280;38637;49.984;20.426;2023-07-22T11:36:35;99155.00;;;23.51;54.18
52745;BME280;38637;49.984;20.426;2023-07-22T11:39:08;99153.91;;;23.68;53.87
52745;BME280;38637;49.984;20.426;2023-07-22T11:41:34;99135.28;;;23.84;53.94
52745;BME280;38637;49.984;20.426;2023-07-22T11:44:00;99139.88;;;23.92;51.36
52745;BME280;38637;49.984;20.426;2023-07-22T11:46:27;99151.84;;;23.93;51.17
52745;BME280;38637;49.984;20.426;2023-07-22T11:48:53;99141.00;;;24.03;52.14
52745;BME280;38637;49.984;20.426;2023-07-22T11:51:23;99127.22;;;24.11;51.75
52745;BME280;38637;49.984;20.426;2023-07-22T11:53:51;99140.94;;;24.16;50.20
52745;BME280;38637;49.984;20.426;2023-07-22T11:56:27;99131.34;;;24.01;47.55
52745;BME280;38637;49.984;20.426;2023-07-22T11:58:56;99141.72;;;24.00;50.20
52745;BME280;38637;49.984;20.426;2023-07-22T12:01:22;99146.66;;;24.07;48.72
52745;BME280;38637;49.984;20.426;2023-07-22T12:03:48;99141.81;;;24.20;48.86
52745;BME280;38637;49.984;20.426;2023-07-22T12:06:14;99141.81;;;24.36;50.30
52745;BME280;38637;49.984;20.426;2023-07-22T12:08:44;99133.69;;;24.59;50.43
52745;BME280;38637;49.984;20.426;2023-07-22T12:11:36;99134.50;;;24.94;50.81
52745;BME280;38637;49.984;20.426;2023-07-22T12:14:08;99139.63;;;25.08;47.86
52745;BME280;38637;49.984;20.426;2023-07-22T12:16:35;99126.47;;;25.09;47.42
52745;BME280;38637;49.984;20.426;2023-07-22T12:19:02;99143.88;;;25.02;45.27
52745;BME280;38637;49.984;20.426;2023-07-22T12:21:27;99146.94;;;25.13;45.95
52745;BME280;38637;49.984;20.426;2023-07-22T12:23:53;99130.78;;;25.06;44.45
52745;BME280;38637;49.984;20.426;2023-07-22T12:26:18;99127.56;;;25.04;45.24
52745;BME280;38637;49.984;20.426;2023-07-22T12:28:44;99121.72;;;24.93;45.02
52745;BME280;38637;49.984;20.426;2023-07-22T12:31:09;99136.75;;;25.05;46.44
52745;BME280;38637;49.984;20.426;2023-07-22T12:33:34;99127.38;;;24.97;45.26
52745;BME280;38637;49.984;20.426;2023-07-22T12:36:00;99126.53;;;25.12;44.73
52745;BME280;38637;49.984;20.426;2023-07-22T12:38:25;99128.44;;;25.24;43.60
52745;BME280;38637;49.984;20.426;2023-07-22T12:40:50;99114.69;;;25.35;43.93
52745;BME280;38637;49.984;20.426;2023-07-22T12:43:16;99118.22;;;25.51;43.69
52745;BME280;38637;49.984;20.426;2023-07-22T12:45:41;99114.16;;;25.49;42.42
52745;BME280;38637;49.984;20.426;2023-07-22T12:48:06;99112.34;;;25.56;42.33
52745;BME280;38637;49.984;20.426;2023-07-22T12:50:32;99110.06;;;25.42;43.79
52745;BME280;38637;49.984;20.426;2023-07-22T12:53:02;99107.31;;;25.27;43.40
52745;BME280;38637;49.984;20.426;2023-07-22T12:55:28;99121.16;;;25.19;43.95
52745;BME280;38637;49.984;20.426;2023-07-22T12:57:53;99118.16;;;25.12;45.44
52745;BME280;38637;49.984;20.426;2023-07-22T13:00:19;99123.59;;;25.05;45.08
52745;BME280;38637;49.984;20.426;2023-07-22T13:02:44;99117.75;;;24.94;45.93
52745;BME280;38637;49.984;20.426;2023-07-22T13:05:09;99120.53;;;24.94;45.05
52745;BME280;38637;49.984;20.426;2023-07-22T13:07:35;99118.41;;;24.88;45.87
52745;BME280;38637;49.984;20.426;2023-07-22T13:10:04;99122.53;;;24.94;46.00
52745;BME280;38637;49.984;20.426;2023-07-22T13:12:32;99118.72;;;25.02;45.04